sensor_id;sensor_type;location;lat;lon;timestamp;pressure;altitude;pressure_sealevel;temperature;humidity
10706;BME280;5404;42.656;23.336;2023-04-06T00:00:01;94582.63;;;0.82;100.00
10706;BME280;5404;42.656;23.336;2023-04-06T00:02:27;94574.84;;;0.87;100.00
10706;BME280;5404;42.656;23.336;2023-04-06T00:04:52;94563.47;;;0.82;100.00
10706;BME280;5404;42.656;23.336;2023-04-06T00:07:19;94566.09;;;0.82;100.00
10706;BME280;5404;42.656;23.336;2023-04-06T00:09:45;94558.97;;;0.77;100.00
10706;BME280;5404;42.656;23.336;2023-04-06T00:12:10;94558.97;;;0.77;100.00
10706;BME280;5404;42.656;23.336;2023-04-06T00:14:35;94559.72;;;0.78;100.00
10706;BME280;5404;42.656;23.336;2023-04-06T00:17:01;94560.53;;;0.78;100.00
10706;BME280;5404;42.656;23.336;2023-04-06T00:19:26;94549.81;;;0.80;100.00
10706;BME280;5404;42.656;23.336;2023-04-06T00:21:52;94554.97;;;0.75;100.00
10706;BME280;5404;42.656;23.336;2023-04-06T00:24:18;94558.09;;;0.72;100.00
10706;BME280;5404;42.656;23.336;2023-04-06T00:26:43;94552.09;;;0.76;100.00
10706;BME280;5404;42.656;23.336;2023-04-06T00:29:08;94548.69;;;0.76;100.00
10706;BME280;5404;42.656;23.336;2023-04-06T00:31:34;94544.00;;;0.78;100.00
10706;BME280;5404;42.656;23.336;2023-04-06T00:33:59;94449.31;;;0.20;100.00
10706;BME280;5404;42.656;23.336;2023-04-06T00:36:24;94544.25;;;0.76;100.00
10706;BME280;5404;42.656;23.336;2023-04-06T00:38:50;94546.63;;;0.78;100.00
10706;BME280;5404;42.656;23.336;2023-04-06T00:41:17;94537.19;;;0.77;100.00
10706;BME280;5404;42.656;23.336;2023-04-06T00:43:42;94535.25;;;0.72;100.00
10706;BME280;5404;42.656;23.336;2023-04-06T00:46:08;94535.66;;;0.64;100.00
10706;BME280;5404;42.656;23.336;2023-04-06T00:48:33;94535.91;;;0.63;100.00
10706;BME280;5404;42.656;23.336;2023-04-06T00:51:00;94534.66;;;0.65;100.00
10706;BME280;5404;42.656;23.336;2023-04-06T00:53:26;94540.91;;;0.64;100.00
10706;BME280;5404;42.656;23.336;2023-04-06T00:55:51;94533.59;;;0.66;100.00
10706;BME280;5404;42.656;23.336;2023-04-06T00:58:17;94545.91;;;0.66;100.00
10706;BME280;5404;42.656;23.336;2023-04-06T01:00:44;94519.44;;;0.67;100.00
10706;BME280;5404;42.656;23.336;2023-04-06T01:03:10;94528.59;;;0.65;100.00
10706;BME280;5404;42.656;23.336;2023-04-06T01:05:35;94541.00;;;0.69;100.00
10706;BME280;5404;42.656;23.336;2023-04-06T01:08:05;94537.66;;;0.74;100.00
10706;BME280;5404;42.656;23.336;2023-04-06T01:10:30;94538.19;;;0.76;100.00
10706;BME280;5404;42.656;23.336;2023-04-06T01:12:56;94530.19;;;0.82;100.00
10706;BME280;5404;42.656;23.336;2023-04-06T01:15:23;94525.25;;;0.86;100.00
10706;BME280;5404;42.656;23.336;2023-04-06T01:17:48;94524.00;;;0.72;100.00
10706;BME280;5404;42.656;23.336;2023-04-06T01:20:14;94523.19;;;0.71;100.00
10706;BME280;5404;42.656;23.336;2023-04-06T01:22:41;94520.66;;;0.76;100.00
10706;BME280;5404;42.656;23.336;2023-04-06T01:25:07;94512.28;;;0.79;100.00
10706;BME280;5404;42.656;23.336;2023-04-06T01:27:32;94519.13;;;0.80;100.00
10706;BME280;5404;42.656;23.336;2023-04-06T01:29:57;94515.72;;;0.80;100.00
10706;BME280;5404;42.656;23.336;2023-04-06T01:32:23;94524.44;;;0.85;100.00
10706;BME280;5404;42.656;23.336;2023-04-06T01:34:48;94519.75;;;0.87;100.00
10706;BME280;5404;42.656;23.336;2023-04-06T01:37:13;94509.34;;;0.92;100.00
10706;BME280;5404;42.656;23.336;2023-04-06T01:39:39;94507.28;;;0.94;100.00
10706;BME280;5404;42.656;23.336;2023-04-06T01:42:05;94505.81;;;1.03;100.00
10706;BME280;5404;42.656;23.336;2023-04-06T01:44:30;94512.03;;;0.97;100.00
10706;BME280;5404;42.656;23.336;2023-04-06T01:46:56;94511.47;;;0.95;100.00
10706;BME280;5404;42.656;23.336;2023-04-06T01:49:21;94513.78;;;0.92;100.00
10706;BME280;5404;42.656;23.336;2023-04-06T01:51:46;94509.97;;;0.99;100.00
10706;BME280;5404;42.656;23.336;2023-04-06T01:54:13;94500.81;;;1.02;100.00
10706;BME280;5404;42.656;23.336;2023-04-06T01:56:38;94500.56;;;1.03;100.00
10706;BME280;5404;42.656;23.336;2023-04-06T01:59:03;94494.84;;;1.06;100.00
10706;BME280;5404;42.656;23.336;2023-04-06T02:01:29;94496.66;;;1.06;100.00
10706;BME280;5404;42.656;23.336;2023-04-06T02:03:55;94499.34;;;1.11;100.00
10706;BME280;5404;42.656;23.336;2023-04-06T02:06:20;94494.03;;;1.06;100.00
10706;BME280;5404;42.656;23.336;2023-04-06T02:08:45;94497.69;;;1.05;100.00
10706;BME280;5404;42.656;23.336;2023-04-06T02:11:11;94491.50;;;1.11;100.00
10706;BME280;5404;42.656;23.336;2023-04-06T02:13:36;94514.47;;;1.04;100.00
10706;BME280;5404;42.656;23.336;2023-04-06T02:16:01;94497.16;;;1.03;100.00
10706;BME280;5404;42.656;23.336;2023-04-06T02:18:27;94496.91;;;1.04;100.00
10706;BME280;5404;42.656;23.336;2023-04-06T02:20:53;94485.13;;;1.07;100.00
10706;BME280;5404;42.656;23.336;2023-04-06T02:23:21;94495.50;;;0.97;100.00
10706;BME280;5404;42.656;23.336;2023-04-06T02:25:46;94486.13;;;1.01;100.00
10706;BME280;5404;42.656;23.336;2023-04-06T02:28:11;94491.28;;;0.96;100.00
10706;BME280;5404;42.656;23.336;2023-04-06T02:30:37;94490.06;;;1.03;100.00
10706;BME280;5404;42.656;23.336;2023-04-06T02:33:03;94485.44;;;1.10;100.00
10706;BME280;5404;42.656;23.336;2023-04-06T02:35:29;94493.75;;;1.02;100.00
10706;BME280;5404;42.656;23.336;2023-04-06T02:37:55;94489.28;;;1.03;100.00
10706;BME280;5404;42.656;23.336;2023-04-06T02:40:21;94499.47;;;0.99;100.00
10706;BME280;5404;42.656;23.336;2023-04-06T02:42:46;94484.75;;;0.98;100.00
10706;BME280;5404;42.656;23.336;2023-04-06T02:45:12;94489.22;;;0.98;100.00
10706;BME280;5404;42.656;23.336;2023-04-06T02:47:37;94486.91;;;1.01;100.00
10706;BME280;5404;42.656;23.336;2023-04-06T02:50:02;94487.28;;;1.10;100.00
10706;BME280;5404;42.656;23.336;2023-04-06T02:52:28;94478.81;;;1.03;100.00
10706;BME280;5404;42.656;23.336;2023-04-06T02:54:53;94471.56;;;1.10;100.00
10706;BME280;5404;42.656;23.336;2023-04-06T02:57:18;94478.13;;;1.12;100.00
10706;BME280;5404;42.656;23.336;2023-04-06T02:59:44;94481.06;;;1.16;100.00
10706;BME280;5404;42.656;23.336;2023-04-06T03:02:09;94477.94;;;1.19;100.00
10706;BME280;5404;42.656;23.336;2023-04-06T03:04:36;94476.41;;;1.23;100.00
10706;BME280;5404;42.656;23.336;2023-04-06T03:07:01;94488.03;;;1.27;100.00
10706;BME280;5404;42.656;23.336;2023-04-06T03:09:28;94478.06;;;1.29;100.00
10706;BME280;5404;42.656;23.336;2023-04-06T03:11:53;94478.84;;;1.30;100.00
10706;BME280;5404;42.656;23.336;2023-04-06T03:14:18;94478.53;;;1.26;100.00
10706;BME280;5404;42.656;23.336;2023-04-06T03:16:47;94483.44;;;1.17;100.00
10706;BME280;5404;42.656;23.336;2023-04-06T03:19:12;94478.53;;;1.26;100.00
10706;BME280;5404;42.656;23.336;2023-04-06T03:21:39;94476.72;;;1.27;100.00
10706;BME280;5404;42.656;23.336;2023-04-06T03:24:05;94467.13;;;1.15;100.00
10706;BME280;5404;42.656;23.336;2023-04-06T03:26:30;94470.00;;;1.14;100.00
10706;BME280;5404;42.656;23.336;2023-04-06T03:28:55;94481.00;;;1.11;100.00
10706;BME280;5404;42.656;23.336;2023-04-06T03:31:21;94475.13;;;1.04;100.00
10706;BME280;5404;42.656;23.336;2023-04-06T03:33:46;94471.94;;;1.02;100.00
10706;BME280;5404;42.656;23.336;2023-04-06T03:36:11;94478.00;;;1.02;100.00
10706;BME280;5404;42.656;23.336;2023-04-06T03:38:36;94478.44;;;0.94;100.00
10706;BME280;5404;42.656;23.336;2023-04-06T03:41:02;94475.88;;;0.99;100.00
10706;BME280;5404;42.656;23.336;2023-04-06T03:43:27;94483.50;;;1.01;100.00
10706;BME280;5404;42.656;23.336;2023-04-06T03:45:52;94487.13;;;1.00;100.00
10706;BME280;5404;42.656;23.336;2023-04-06T03:48:18;94481.25;;;0.93;100.00
10706;BME280;5404;42.656;23.336;2023-04-06T03:50:43;94482.88;;;0.94;100.00
10706;BME280;5404;42.656;23.336;2023-04-06T03:53:08;94476.81;;;0.93;100.00
10706;BME280;5404;42.656;23.336;2023-04-06T03:55:33;94481.06;;;0.94;100.00
10706;BME280;5404;42.656;23.336;2023-04-06T03:57:59;94481.50;;;0.91;100.00
10706;BME280;5404;42.656;23.336;2023-04-06T04:00:24;94476.28;;;0.91;100.00
10706;BME280;5404;42.656;23.336;2023-04-06T04:02:50;94464.50;;;0.94;100.00
10706;BME280;5404;42.656;23.336;2023-04-06T04:05:15;94476.81;;;0.93;100.00
10706;BME280;5404;42.656;23.336;2023-04-06T04:07:41;94471.94;;;1.02;100.00
10706;BME280;5404;42.656;23.336;2023-04-06T04:10:06;94464.31;;;1.00;100.00
10706;BME280;5404;42.656;23.336;2023-04-06T04:12:31;94486.38;;;0.99;100.00
10706;BME280;5404;42.656;23.336;2023-04-06T04:14:57;94478.31;;;1.06;100.00
10706;BME280;5404;42.656;23.336;2023-04-06T04:17:22;94478.13;;;1.12;100.00
10706;BME280;5404;42.656;23.336;2023-04-06T04:19:47;94473.78;;;1.23;100.00
10706;BME280;5404;42.656;23.336;2023-04-06T04:22:12;94484.09;;;1.30;100.00
10706;BME280;5404;42.656;23.336;2023-04-06T04:24:38;94475.78;;;1.38;100.00
10706;BME280;5404;42.656;23.336;2023-04-06T04:27:03;94483.28;;;1.29;100.00
10706;BME280;5404;42.656;23.336;2023-04-06T04:29:29;94480.97;;;1.33;100.00
10706;BME280;5404;42.656;23.336;2023-04-06T04:31:55;94492.28;;;1.33;100.00
10706;BME280;5404;42.656;23.336;2023-04-06T04:34:20;94485.00;;;1.40;100.00
10706;BME280;5404;42.656;23.336;2023-04-06T04:36:46;94486.53;;;1.36;100.00
10706;BME280;5404;42.656;23.336;2023-04-06T04:39:11;94487.38;;;1.42;100.00
10706;BME280;5404;42.656;23.336;2023-04-06T04:41:36;94486.78;;;1.35;100.00
10706;BME280;5404;42.656;23.336;2023-04-06T04:44:02;94483.91;;;1.36;100.00
10706;BME280;5404;42.656;23.336;2023-04-06T04:46:27;94489.50;;;1.45;100.00
10706;BME280;5404;42.656;23.336;2023-04-06T04:48:52;94484.75;;;1.42;100.00
10706;BME280;5404;42.656;23.336;2023-04-06T04:51:18;94463.28;;;1.45;100.00
10706;BME280;5404;42.656;23.336;2023-04-06T04:53:44;94481.59;;;1.40;100.00
10706;BME280;5404;42.656;23.336;2023-04-06T04:56:10;94472.69;;;1.41;100.00
10706;BME280;5404;42.656;23.336;2023-04-06T04:58:35;94480.88;;;1.44;100.00
10706;BME280;5404;42.656;23.336;2023-04-06T05:01:00;94484.63;;;1.53;100.00
10706;BME280;5404;42.656;23.336;2023-04-06T05:03:26;94477.00;;;1.52;100.00
10706;BME280;5404;42.656;23.336;2023-04-06T05:05:51;94479.97;;;1.60;100.00
10706;BME280;5404;42.656;23.336;2023-04-06T05:08:16;94471.50;;;1.53;100.00
10706;BME280;5404;42.656;23.336;2023-04-06T05:10:42;94474.38;;;1.52;100.00
10706;BME280;5404;42.656;23.336;2023-04-06T05:13:07;94467.34;;;1.57;100.00
10706;BME280;5404;42.656;23.336;2023-04-06T05:15:33;94477.91;;;1.62;100.00
10706;BME280;5404;42.656;23.336;2023-04-06T05:18:03;94477.47;;;1.70;100.00
10706;BME280;5404;42.656;23.336;2023-04-06T05:20:28;94473.06;;;1.76;100.00
10706;BME280;5404;42.656;23.336;2023-04-06T05:22:54;94474.19;;;1.85;100.00
10706;BME280;5404;42.656;23.336;2023-04-06T05:25:19;94475.84;;;1.91;100.00
10706;BME280;5404;42.656;23.336;2023-04-06T05:27:45;94477.72;;;1.95;100.00
10706;BME280;5404;42.656;23.336;2023-04-06T05:30:10;94482.47;;;1.98;100.00
10706;BME280;5404;42.656;23.336;2023-04-06T05:32:35;94475.38;;;1.99;100.00
10706;BME280;5404;42.656;23.336;2023-04-06T05:35:01;94476.03;;;2.11;100.00
10706;BME280;5404;42.656;23.336;2023-04-06T05:37:26;94481.06;;;2.17;100.00
10706;BME280;5404;42.656;23.336;2023-04-06T05:39:51;94480.06;;;2.23;100.00
10706;BME280;5404;42.656;23.336;2023-04-06T05:42:17;94477.53;;;2.33;100.00
10706;BME280;5404;42.656;23.336;2023-04-06T05:44:42;94482.09;;;2.48;100.00
10706;BME280;5404;42.656;23.336;2023-04-06T05:47:07;94476.91;;;2.58;100.00
10706;BME280;5404;42.656;23.336;2023-04-06T05:49:33;94475.16;;;2.74;100.00
10706;BME280;5404;42.656;23.336;2023-04-06T05:51:58;94478.94;;;2.88;100.00
10706;BME280;5404;42.656;23.336;2023-04-06T05:54:23;94469.84;;;3.05;100.00
10706;BME280;5404;42.656;23.336;2023-04-06T05:56:49;94464.88;;;3.14;100.00
10706;BME280;5404;42.656;23.336;2023-04-06T05:59:14;94460.44;;;3.19;100.00
10706;BME280;5404;42.656;23.336;2023-04-06T06:01:40;94459.63;;;3.19;100.00
10706;BME280;5404;42.656;23.336;2023-04-06T06:04:05;94457.50;;;3.16;100.00
10706;BME280;5404;42.656;23.336;2023-04-06T06:06:30;94458.09;;;3.28;100.00
10706;BME280;5404;42.656;23.336;2023-04-06T06:08:56;94456.47;;;3.22;100.00
10706;BME280;5404;42.656;23.336;2023-04-06T06:11:25;94448.00;;;3.10;100.00
10706;BME280;5404;42.656;23.336;2023-04-06T06:13:51;94450.06;;;3.03;100.00
10706;BME280;5404;42.656;23.336;2023-04-06T06:16:16;94452.94;;;2.96;100.00
10706;BME280;5404;42.656;23.336;2023-04-06T06:18:42;94459.06;;;3.12;100.00
10706;BME280;5404;42.656;23.336;2023-04-06T06:21:07;94452.53;;;3.19;100.00
10706;BME280;5404;42.656;23.336;2023-04-06T06:23:32;94458.34;;;3.26;100.00
10706;BME280;5404;42.656;23.336;2023-04-06T06:25:58;94456.75;;;3.25;100.00
10706;BME280;5404;42.656;23.336;2023-04-06T06:28:23;94456.34;;;2.92;100.00
10706;BME280;5404;42.656;23.336;2023-04-06T06:30:50;94459.53;;;2.99;100.00
10706;BME280;5404;42.656;23.336;2023-04-06T06:33:15;94456.47;;;3.17;100.00
10706;BME280;5404;42.656;23.336;2023-04-06T06:35:40;94457.63;;;3.46;100.00
10706;BME280;5404;42.656;23.336;2023-04-06T06:38:06;94451.91;;;3.69;100.00
10706;BME280;5404;42.656;23.336;2023-04-06T06:40:31;94453.50;;;3.80;100.00
10706;BME280;5404;42.656;23.336;2023-04-06T06:42:56;94451.41;;;3.82;100.00
10706;BME280;5404;42.656;23.336;2023-04-06T06:45:21;94453.75;;;3.84;100.00
10706;BME280;5404;42.656;23.336;2023-04-06T06:47:47;94447.19;;;3.86;100.00
10706;BME280;5404;42.656;23.336;2023-04-06T06:50:12;94457.72;;;3.81;100.00
10706;BME280;5404;42.656;23.336;2023-04-06T06:52:37;94458.28;;;3.88;100.00
10706;BME280;5404;42.656;23.336;2023-04-06T06:55:03;94449.81;;;3.81;100.00
10706;BME280;5404;42.656;23.336;2023-04-06T06:57:28;94455.34;;;3.75;100.00
10706;BME280;5404;42.656;23.336;2023-04-06T06:59:53;94452.66;;;3.59;100.00
10706;BME280;5404;42.656;23.336;2023-04-06T07:02:19;94456.09;;;3.60;100.00
10706;BME280;5404;42.656;23.336;2023-04-06T07:04:47;94447.38;;;3.59;100.00
10706;BME280;5404;42.656;23.336;2023-04-06T07:07:12;94450.28;;;3.58;100.00
10706;BME280;5404;42.656;23.336;2023-04-06T07:09:37;94444.75;;;3.59;100.00
10706;BME280;5404;42.656;23.336;2023-04-06T07:12:03;94452.69;;;3.65;100.00
10706;BME280;5404;42.656;23.336;2023-04-06T07:14:28;94428.94;;;3.59;100.00
10706;BME280;5404;42.656;23.336;2023-04-06T07:16:53;94440.28;;;3.65;100.00
10706;BME280;5404;42.656;23.336;2023-04-06T07:19:18;94449.78;;;3.61;100.00
10706;BME280;5404;42.656;23.336;2023-04-06T07:21:44;94445.81;;;3.58;100.00
10706;BME280;5404;42.656;23.336;2023-04-06T07:24:09;94442.44;;;3.73;100.00
10706;BME280;5404;42.656;23.336;2023-04-06T07:26:35;94447.19;;;3.86;100.00
10706;BME280;5404;42.656;23.336;2023-04-06T07:29:00;94438.50;;;4.01;100.00
10706;BME280;5404;42.656;23.336;2023-04-06T07:31:25;94438.81;;;4.09;100.00
10706;BME280;5404;42.656;23.336;2023-04-06T07:33:51;94436.94;;;4.10;100.00
10706;BME280;5404;42.656;23.336;2023-04-06T07:36:16;94446.69;;;3.99;100.00
10706;BME280;5404;42.656;23.336;2023-04-06T07:38:41;94443.53;;;4.17;100.00
10706;BME280;5404;42.656;23.336;2023-04-06T07:41:06;94438.81;;;4.19;100.00
10706;BME280;5404;42.656;23.336;2023-04-06T07:43:32;94433.53;;;4.24;100.00
10706;BME280;5404;42.656;23.336;2023-04-06T07:45:57;94426.16;;;4.31;100.00
10706;BME280;5404;42.656;23.336;2023-04-06T07:48:24;94434.31;;;4.35;100.00
10706;BME280;5404;42.656;23.336;2023-04-06T07:50:50;94432.47;;;4.30;100.00
10706;BME280;5404;42.656;23.336;2023-04-06T07:53:15;94444.06;;;4.24;100.00
10706;BME280;5404;42.656;23.336;2023-04-06T07:55:40;94433.53;;;4.14;100.00
10706;BME280;5404;42.656;23.336;2023-04-06T07:58:06;94442.47;;;4.18;100.00
10706;BME280;5404;42.656;23.336;2023-04-06T08:00:31;94440.91;;;4.22;100.00
10706;BME280;5404;42.656;23.336;2023-04-06T08:02:57;94438.53;;;4.31;100.00
10706;BME280;5404;42.656;23.336;2023-04-06T08:05:22;94440.38;;;4.45;100.00
10706;BME280;5404;42.656;23.336;2023-04-06T08:07:47;94353.41;;;3.95;100.00
10706;BME280;5404;42.656;23.336;2023-04-06T08:10:12;94434.06;;;4.41;100.00
10706;BME280;5404;42.656;23.336;2023-04-06T08:12:38;94432.47;;;4.50;100.00
10706;BME280;5404;42.656;23.336;2023-04-06T08:15:03;94427.47;;;4.54;100.00
10706;BME280;5404;42.656;23.336;2023-04-06T08:17:29;94436.63;;;4.71;100.00
10706;BME280;5404;42.656;23.336;2023-04-06T08:19:56;94415.75;;;4.95;100.00
10706;BME280;5404;42.656;23.336;2023-04-06T08:22:21;94422.06;;;4.94;100.00
10706;BME280;5404;42.656;23.336;2023-04-06T08:24:46;94427.31;;;5.04;100.00
10706;BME280;5404;42.656;23.336;2023-04-06T08:27:11;94441.06;;;5.01;100.00
10706;BME280;5404;42.656;23.336;2023-04-06T08:29:38;94424.97;;;5.03;100.00
10706;BME280;5404;42.656;23.336;2023-04-06T08:32:04;94435.50;;;5.08;100.00
10706;BME280;5404;42.656;23.336;2023-04-06T08:34:30;94426.31;;;4.95;100.00
10706;BME280;5404;42.656;23.336;2023-04-06T08:36:56;94432.31;;;5.16;100.00
10706;BME280;5404;42.656;23.336;2023-04-06T08:39:21;94441.13;;;4.81;100.00
10706;BME280;5404;42.656;23.336;2023-04-06T08:41:50;94444.47;;;5.12;100.00
10706;BME280;5404;42.656;23.336;2023-04-06T08:44:17;94439.03;;;5.57;100.00
10706;BME280;5404;42.656;23.336;2023-04-06T08:46:42;94439.63;;;5.39;100.00
10706;BME280;5404;42.656;23.336;2023-04-06T08:49:08;94434.50;;;4.99;100.00
10706;BME280;5404;42.656;23.336;2023-04-06T08:51:34;94442.16;;;4.95;100.00
10706;BME280;5404;42.656;23.336;2023-04-06T08:53:59;94435.00;;;4.96;100.00
10706;BME280;5404;42.656;23.336;2023-04-06T08:56:25;94428.56;;;5.27;100.00
10706;BME280;5404;42.656;23.336;2023-04-06T08:58:51;94431.97;;;5.37;100.00
10706;BME280;5404;42.656;23.336;2023-04-06T09:01:18;94432.09;;;5.61;100.00
10706;BME280;5404;42.656;23.336;2023-04-06T09:03:45;94436.88;;;5.64;100.00
10706;BME280;5404;42.656;23.336;2023-04-06T09:06:11;94409.94;;;5.57;100.00
10706;BME280;5404;42.656;23.336;2023-04-06T09:08:38;94414.88;;;5.73;100.00
10706;BME280;5404;42.656;23.336;2023-04-06T09:11:05;94422.00;;;5.73;100.00
10706;BME280;5404;42.656;23.336;2023-04-06T09:13:30;94410.06;;;5.85;100.00
10706;BME280;5404;42.656;23.336;2023-04-06T09:16:00;94409.34;;;6.14;100.00
10706;BME280;5404;42.656;23.336;2023-04-06T09:18:28;94416.84;;;6.92;100.00
10706;BME280;5404;42.656;23.336;2023-04-06T09:21:01;94415.72;;;8.57;100.00
10706;BME280;5404;42.656;23.336;2023-04-06T09:23:27;94410.38;;;10.20;100.00
10706;BME280;5404;42.656;23.336;2023-04-06T09:26:03;94387.66;;;11.11;79.15
10706;BME280;5404;42.656;23.336;2023-04-06T09:28:28;94400.91;;;11.81;69.19
10706;BME280;5404;42.656;23.336;2023-04-06T09:30:54;94397.81;;;12.64;62.30
10706;BME280;5404;42.656;23.336;2023-04-06T09:33:25;94399.53;;;12.68;59.32
10706;BME280;5404;42.656;23.336;2023-04-06T09:35:50;94418.69;;;10.85;58.83
10706;BME280;5404;42.656;23.336;2023-04-06T09:38:16;94408.75;;;10.77;63.83
10706;BME280;5404;42.656;23.336;2023-04-06T09:40:50;94410.03;;;11.80;63.30
10706;BME280;5404;42.656;23.336;2023-04-06T09:43:25;94397.34;;;12.19;56.67
10706;BME280;5404;42.656;23.336;2023-04-06T09:45:51;94409.53;;;12.88;54.85
10706;BME280;5404;42.656;23.336;2023-04-06T09:48:17;94407.75;;;13.27;52.43
10706;BME280;5404;42.656;23.336;2023-04-06T09:50:44;94404.47;;;13.13;50.74
10706;BME280;5404;42.656;23.336;2023-04-06T09:53:10;94397.50;;;13.66;49.21
10706;BME280;5404;42.656;23.336;2023-04-06T09:55:45;94410.81;;;12.91;49.05
10706;BME280;5404;42.656;23.336;2023-04-06T09:58:13;94397.38;;;13.63;48.76
10706;BME280;5404;42.656;23.336;2023-04-06T10:00:47;94409.84;;;13.50;47.88
10706;BME280;5404;42.656;23.336;2023-04-06T10:06:03;94417.97;;;9.77;57.93
10706;BME280;5404;42.656;23.336;2023-04-06T10:08:29;94419.25;;;10.51;59.67
10706;BME280;5404;42.656;23.336;2023-04-06T10:10:56;94408.84;;;10.41;59.53
10706;BME280;5404;42.656;23.336;2023-04-06T10:13:22;94419.25;;;10.95;59.85
10706;BME280;5404;42.656;23.336;2023-04-06T10:15:48;94412.53;;;11.45;54.33
10706;BME280;5404;42.656;23.336;2023-04-06T10:18:13;94405.56;;;10.88;53.25
10706;BME280;5404;42.656;23.336;2023-04-06T10:20:42;94395.53;;;9.70;58.71
10706;BME280;5404;42.656;23.336;2023-04-06T10:23:09;94409.53;;;9.34;62.51
10706;BME280;5404;42.656;23.336;2023-04-06T10:25:51;94413.97;;;7.97;69.61
10706;BME280;5404;42.656;23.336;2023-04-06T10:28:16;94410.47;;;8.84;72.20
10706;BME280;5404;42.656;23.336;2023-04-06T10:30:44;94392.22;;;9.86;66.43
10706;BME280;5404;42.656;23.336;2023-04-06T10:33:13;94391.47;;;10.43;61.09
10706;BME280;5404;42.656;23.336;2023-04-06T10:35:39;94389.84;;;10.34;60.50
10706;BME280;5404;42.656;23.336;2023-04-06T10:38:05;94392.44;;;10.25;60.75
10706;BME280;5404;42.656;23.336;2023-04-06T10:40:30;94390.63;;;9.99;63.47
10706;BME280;5404;42.656;23.336;2023-04-06T10:45:33;94387.69;;;11.19;56.45
10706;BME280;5404;42.656;23.336;2023-04-06T10:47:58;94380.03;;;11.26;55.75
10706;BME280;5404;42.656;23.336;2023-04-06T10:50:24;94381.25;;;11.20;55.47
10706;BME280;5404;42.656;23.336;2023-04-06T10:53:00;94390.94;;;10.86;55.19
10706;BME280;5404;42.656;23.336;2023-04-06T10:55:26;94309.19;;;9.76;57.38
10706;BME280;5404;42.656;23.336;2023-04-06T10:57:52;94399.16;;;9.60;61.50
10706;BME280;5404;42.656;23.336;2023-04-06T11:00:17;94399.84;;;8.84;70.36
10706;BME280;5404;42.656;23.336;2023-04-06T11:02:44;94397.19;;;8.98;69.65
10706;BME280;5404;42.656;23.336;2023-04-06T11:05:11;94388.25;;;9.07;68.65
10706;BME280;5404;42.656;23.336;2023-04-06T11:07:36;94384.91;;;8.88;70.12
10706;BME280;5404;42.656;23.336;2023-04-06T11:10:02;94378.75;;;8.61;74.88
10706;BME280;5404;42.656;23.336;2023-04-06T11:12:27;94375.94;;;8.84;74.33
10706;BME280;5404;42.656;23.336;2023-04-06T11:14:57;94375.81;;;8.76;72.36
10706;BME280;5404;42.656;23.336;2023-04-06T11:17:29;94383.69;;;8.67;75.10
10706;BME280;5404;42.656;23.336;2023-04-06T11:19:55;94382.03;;;8.71;71.34
10706;BME280;5404;42.656;23.336;2023-04-06T11:22:20;94375.78;;;8.62;72.63
10706;BME280;5404;42.656;23.336;2023-04-06T11:24:46;94367.31;;;8.92;71.04
10706;BME280;5404;42.656;23.336;2023-04-06T11:27:11;94362.09;;;8.87;73.08
10706;BME280;5404;42.656;23.336;2023-04-06T11:29:36;94364.66;;;8.92;73.11
10706;BME280;5404;42.656;23.336;2023-04-06T11:32:05;94370.72;;;8.79;75.50
10706;BME280;5404;42.656;23.336;2023-04-06T11:34:36;94368.59;;;8.49;73.69
10706;BME280;5404;42.656;23.336;2023-04-06T11:37:02;94368.75;;;8.20;77.79
10706;BME280;5404;42.656;23.336;2023-04-06T11:39:31;94369.09;;;7.63;81.46
10706;BME280;5404;42.656;23.336;2023-04-06T11:41:58;94363.34;;;7.38;84.57
10706;BME280;5404;42.656;23.336;2023-04-06T11:44:36;94366.34;;;7.07;88.35
10706;BME280;5404;42.656;23.336;2023-04-06T11:47:04;94361.75;;;6.94;92.85
10706;BME280;5404;42.656;23.336;2023-04-06T11:49:30;94357.97;;;7.00;93.48
10706;BME280;5404;42.656;23.336;2023-04-06T11:51:56;94368.38;;;6.92;95.06
10706;BME280;5404;42.656;23.336;2023-04-06T11:54:37;94352.84;;;6.85;95.95
10706;BME280;5404;42.656;23.336;2023-04-06T11:57:03;94354.19;;;7.06;97.95
10706;BME280;5404;42.656;23.336;2023-04-06T11:59:29;94348.38;;;7.04;95.27
10706;BME280;5404;42.656;23.336;2023-04-06T12:01:55;94349.56;;;6.93;93.19
10706;BME280;5404;42.656;23.336;2023-04-06T12:04:21;94354.81;;;6.75;96.60
10706;BME280;5404;42.656;23.336;2023-04-06T12:06:46;94352.38;;;6.78;98.37
10706;BME280;5404;42.656;23.336;2023-04-06T12:09:11;94355.78;;;6.55;98.63
10706;BME280;5404;42.656;23.336;2023-04-06T12:11:37;94354.03;;;6.46;99.89
10706;BME280;5404;42.656;23.336;2023-04-06T12:14:02;94354.75;;;6.28;100.00
10706;BME280;5404;42.656;23.336;2023-04-06T12:16:30;94357.94;;;6.25;100.00
10706;BME280;5404;42.656;23.336;2023-04-06T12:18:55;94357.06;;;6.34;100.00
10706;BME280;5404;42.656;23.336;2023-04-06T12:21:21;94352.56;;;6.35;100.00
10706;BME280;5404;42.656;23.336;2023-04-06T12:23:46;94348.44;;;6.24;100.00
10706;BME280;5404;42.656;23.336;2023-04-06T12:26:11;94349.00;;;6.21;100.00
10706;BME280;5404;42.656;23.336;2023-04-06T12:28:36;94355.56;;;5.95;100.00
10706;BME280;5404;42.656;23.336;2023-04-06T12:31:02;94359.91;;;6.09;100.00
10706;BME280;5404;42.656;23.336;2023-04-06T12:33:27;94349.03;;;6.16;100.00
10706;BME280;5404;42.656;23.336;2023-04-06T12:35:52;94357.28;;;6.09;100.00
10706;BME280;5404;42.656;23.336;2023-04-06T12:38:18;94349.34;;;6.09;100.00
10706;BME280;5404;42.656;23.336;2023-04-06T12:40:43;94341.97;;;6.06;100.00
10706;BME280;5404;42.656;23.336;2023-04-06T12:43:08;94343.53;;;6.07;100.00
10706;BME280;5404;42.656;23.336;2023-04-06T12:45:34;94343.28;;;6.09;100.00
10706;BME280;5404;42.656;23.336;2023-04-06T12:47:59;94338.47;;;6.16;100.00
10706;BME280;5404;42.656;23.336;2023-04-06T12:50:25;94331.19;;;6.26;100.00
10706;BME280;5404;42.656;23.336;2023-04-06T12:52:51;94330.78;;;6.14;100.00
10706;BME280;5404;42.656;23.336;2023-04-06T12:55:16;94337.75;;;6.05;100.00
10706;BME280;5404;42.656;23.336;2023-04-06T12:57:42;94328.28;;;5.99;100.00
10706;BME280;5404;42.656;23.336;2023-04-06T13:00:07;94330.88;;;6.04;100.00